Martin Berraondo, Argentina
Current Conditions -  °F | °C
As of 3:00 PM on Sunday 21 Dec 2014 (Local Time) from SAEZ Reporting Station
Broken Clouds Broken Clouds  
Wind Chill: 22°   Ceiling: 4200
Heat Index: 22°   Visibility: 6mi
Dew Point: 13°   Wind: 16mph
Humidity: 57%   Direction: 200°SSW
Pressure: 29.77"   Gusts: NA
Location:  35.32°S, 59.95°W
Report Text: SAEZ 211800Z 20014KT 170V250 9999 BKN042 22/13 Q1008
Loading
Personal Weather Stations






























Interactive Weather Map New forecast layout! Learn more

10-Day Weather Forecast

Advertisements
Track Severe Weather on mobile